
Distance (Route):
Temperature : -41.5°C
Humidity : 50.2%
Pressure : 0hPa| Receiver | Date | Latitude | Longitude | Direction | Speed | Altitude | Climb | Temperature | Humidity | Pressure | Voltage | Killtimer | Uptime | BKT | XDATA |
|---|---|---|---|---|---|---|---|---|---|---|---|---|---|---|---|
| LZ4TU-5 | 2026-09-03 18:46:04 | 42.86906 | 20.37874 | 153° | 82km/h | 9854m | -19.5m/s | -41.5°C | 50.2% | 0hPa | 0V | 00:00:00 | 00:00:00 | 00:00:00 | |
| LZ4TU-5 | 2026-09-03 18:45:59 | 42.86999 | 20.37806 | 152° | 84km/h | 9953m | -18.6m/s | -42.5°C | 49.2% | 0hPa | 0V | 00:00:00 | 00:00:00 | 00:00:00 | |
| LZ4TU-5 | 2026-09-03 18:44:46 | 42.88806 | 20.36746 | 163° | 111km/h | 11689m | -25.5m/s | -55.7°C | 22.1% | 0hPa | 0V | 00:00:00 | 00:00:00 | 00:00:00 | |
| LZ4TU-5 | 2026-09-03 18:44:41 | 42.88931 | 20.36683 | 158° | 99km/h | 11809m | -23.5m/s | -56.6°C | 19.0% | 0hPa | 0V | 00:00:00 | 00:00:00 | 00:00:00 | |
| LZ4TU-5 | 2026-09-03 18:43:17 | 42.89991 | 20.34973 | 124° | 73km/h | 14117m | -28.4m/s | -54.3°C | 0.0% | 0hPa | 0V | 00:00:00 | 00:00:00 | 00:00:00 | |
| LZ4TU-5 | 2026-09-03 18:43:12 | 42.90041 | 20.34871 | 129° | 71km/h | 14259m | -29.0m/s | -54.1°C | 0.0% | 0hPa | 0V | 00:00:00 | 00:00:00 | 00:00:00 | |
| LZ4TU-5 | 2026-09-03 18:43:08 | 42.90085 | 20.34794 | 132° | 73km/h | 14378m | -29.4m/s | -54.2°C | 0.0% | 0hPa | 0V | 00:00:00 | 00:00:00 | 00:00:00 | |
| LZ4TU-5 | 2026-09-03 18:41:37 | 42.90434 | 20.33591 | 122° | 29km/h | 17323m | -37.6m/s | -56.6°C | 0.0% | 0hPa | 0V | 00:00:00 | 00:00:00 | 00:00:00 | |
| LZ4TU-5 | 2026-09-03 18:41:32 | 42.90446 | 20.33547 | 105° | 29km/h | 17513m | -37.9m/s | -55.5°C | 0.0% | 0hPa | 0V | 00:00:00 | 00:00:00 | 00:00:00 | |
| LZ4TU-5 | 2026-09-03 18:40:01 | 42.90489 | 20.33125 | 81° | 11km/h | 21374m | -47.5m/s | -53.8°C | 0.0% | 0hPa | 0V | 00:00:00 | 00:00:00 | 00:00:00 | |
| LZ4TU-5 | 2026-09-03 18:39:57 | 42.90491 | 20.33112 | 129° | 11km/h | 21562m | -46.4m/s | -53.8°C | 0.0% | 0hPa | 0V | 00:00:00 | 00:00:00 | 00:00:00 | |
| LZ4TU-5 | 2026-09-03 18:39:43 | 42.90503 | 20.33091 | 165° | 11km/h | 22220m | -48.8m/s | -52.3°C | 0.0% | 0hPa | 0V | 00:00:00 | 00:00:00 | 00:00:00 | |
| LZ4TU-5 | 2026-09-03 18:39:34 | 42.90520 | 20.33087 | 181° | 7km/h | 22648m | -48.0m/s | -52.3°C | 0.0% | 0hPa | 0V | 00:00:00 | 00:00:00 | 00:00:00 | |
| LZ4TU-5 | 2026-09-03 18:39:23 | 42.90546 | 20.33068 | 141° | 15km/h | 23199m | -50.8m/s | -53.4°C | 0.0% | 0hPa | 0V | 00:00:00 | 00:00:00 | 00:00:00 | |
| LZ4TU-5 | 2026-09-03 18:39:15 | 42.90579 | 20.33041 | 159° | 24km/h | 23606m | -52.7m/s | -53.0°C | 0.0% | 0hPa | 0V | 00:00:00 | 00:00:00 | 00:00:00 | |
| LZ4TU-5 | 2026-09-03 18:37:46 | 42.90886 | 20.33299 | 247° | 16km/h | 28421m | -58.6m/s | -45.8°C | 0.0% | 0hPa | 0V | 00:00:00 | 00:00:00 | 00:00:00 | |
| LZ4TU-5 | 2026-09-03 18:37:41 | 42.90893 | 20.33329 | 262° | 20km/h | 28714m | -57.7m/s | -45.1°C | 0.0% | 0hPa | 0V | 00:00:00 | 00:00:00 | 00:00:00 | |
| LZ4TU-5 | 2026-09-03 18:36:17 | 42.90826 | 20.33878 | 24° | 20km/h | 29199m | 5.2m/s | -45.2°C | 0.0% | 0hPa | 0V | 00:00:00 | 00:00:00 | 00:00:00 | |
| LZ4TU-5 | 2026-09-03 18:36:13 | 42.90822 | 20.33884 | 243° | 33km/h | 29173m | 8.1m/s | -45.3°C | 0.0% | 0hPa | 0V | 00:00:00 | 00:00:00 | 00:00:00 | |
| OM5KV | 2026-09-03 18:36:01 | 42.90813 | 20.33947 | 250° | 16km/h | 29096m | 10.0m/s | -46.3°C | 0.0% | 0hPa | 0V | 00:00:00 | 00:00:00 | 00:00:00 | |
| OM5KV | 2026-09-03 18:35:45 | 42.90852 | 20.34027 | 214° | 31km/h | 28991m | 2.3m/s | -46.4°C | 0.0% | 0hPa | 0V | 00:00:00 | 00:00:00 | 00:00:00 | |
| OM5KV | 2026-09-03 18:35:36 | 42.90838 | 20.34089 | 226° | 46km/h | 28915m | 4.9m/s | -46.6°C | 0.0% | 0hPa | 0V | 00:00:00 | 00:00:00 | 00:00:00 | |
| OM5KV | 2026-09-03 18:35:35 | 42.90838 | 20.34089 | 226° | 46km/h | 28915m | 4.9m/s | -46.6°C | 0.0% | 0hPa | 0V | 00:00:00 | 00:00:00 | 00:00:00 | |
| OM5KV | 2026-09-03 18:35:29 | 42.90837 | 20.34136 | 319° | 33km/h | 28878m | 5.8m/s | -46.5°C | 0.0% | 0hPa | 0V | 00:00:00 | 00:00:00 | 00:00:00 | |
| OM5KV | 2026-09-03 18:35:19 | 42.90872 | 20.34192 | 271° | 11km/h | 28807m | 6.3m/s | -46.6°C | 0.0% | 0hPa | 0V | 00:00:00 | 00:00:00 | 00:00:00 | |
| OM5KV | 2026-09-03 18:35:11 | 42.90910 | 20.34257 | 171° | 33km/h | 28755m | 3.8m/s | -46.5°C | 0.0% | 0hPa | 0V | 00:00:00 | 00:00:00 | 00:00:00 | |
| OM5KV | 2026-09-03 18:35:04 | 42.90916 | 20.34303 | 240° | 38km/h | 28707m | 5.9m/s | -46.7°C | 0.0% | 0hPa | 0V | 00:00:00 | 00:00:00 | 00:00:00 | |
| OM5KV | 2026-09-03 18:34:53 | 42.90962 | 20.34346 | 244° | 31km/h | 28626m | 7.7m/s | -46.9°C | 0.0% | 0hPa | 0V | 00:00:00 | 00:00:00 | 00:00:00 | |
| OM5KV | 2026-09-03 18:34:44 | 42.90983 | 20.34386 | 248° | 16km/h | 28562m | 6.1m/s | -47.2°C | 0.0% | 0hPa | 0V | 00:00:00 | 00:00:00 | 00:00:00 | |
| LZ4TU-5 | 2026-09-03 18:34:43 | 42.90984 | 20.34392 | 273° | 16km/h | 28555m | 7.0m/s | -47.2°C | 0.0% | 0hPa | 0V | 00:00:00 | 00:00:00 | 00:00:00 | |
| LZ4TU-5 | 2026-09-03 18:34:39 | 42.90982 | 20.34404 | 228° | 7km/h | 28526m | 5.8m/s | -47.3°C | 0.0% | 0hPa | 0V | 00:00:00 | 00:00:00 | 00:00:00 | |
| LZ4TU-5 | 2026-09-03 18:33:14 | 42.91005 | 20.35259 | 213° | 33km/h | 27947m | 7.0m/s | -47.2°C | 0.0% | 0hPa | 0V | 00:00:00 | 00:00:00 | 00:00:00 | |
| LZ4TU-5 | 2026-09-03 18:33:09 | 42.91029 | 20.35294 | 298° | 13km/h | 27914m | 10.3m/s | -47.1°C | 0.0% | 0hPa | 0V | 00:00:00 | 00:00:00 | 00:00:00 | |
| LZ4TU-5 | 2026-09-03 18:31:44 | 42.91166 | 20.35928 | 218° | 16km/h | 27345m | 5.9m/s | -48.0°C | 0.0% | 0hPa | 0V | 00:00:00 | 00:00:00 | 00:00:00 | |
| LZ4TU-5 | 2026-09-03 18:31:39 | 42.91179 | 20.35973 | 257° | 44km/h | 27315m | 7.4m/s | -48.1°C | 0% | 0hPa | 0V | 00:00:00 | 00:00:00 | 00:00:00 | |
| LZ4TU-5 | 2026-09-03 18:30:15 | 42.91675 | 20.36655 | 206° | 31km/h | 26748m | 5.0m/s | -49.1°C | 0.0% | 0hPa | 0V | 00:00:00 | 00:00:00 | 00:00:00 | |
| LZ4TU-5 | 2026-09-03 18:30:11 | 42.91693 | 20.36675 | 224° | 22km/h | 26723m | 3.8m/s | -49.2°C | 0.0% | 0hPa | 0V | 00:00:00 | 00:00:00 | 00:00:00 | |
| LZ4TU-5 | 2026-09-03 18:28:45 | 42.92227 | 20.36663 | 210° | 24km/h | 26144m | 7.7m/s | -50.2°C | 0.0% | 0hPa | 0V | 00:00:00 | 00:00:00 | 00:00:00 | |
| LZ4TU-5 | 2026-09-03 18:28:40 | 42.92232 | 20.36658 | 44° | 15km/h | 26112m | 5.6m/s | -50.0°C | 0.0% | 0hPa | 0V | 00:00:00 | 00:00:00 | 00:00:00 | |
| LZ4TU-5 | 2026-09-03 18:27:17 | 42.92318 | 20.36815 | 168° | 5km/h | 25561m | 5.2m/s | -48.5°C | 0.0% | 0hPa | 0V | 00:00:00 | 00:00:00 | 00:00:00 | |
| LZ4TU-5 | 2026-09-03 18:27:11 | 42.92347 | 20.36814 | 160° | 24km/h | 25527m | 6.8m/s | -48.7°C | 0.0% | 0hPa | 0V | 00:00:00 | 00:00:00 | 00:00:00 | |
| LZ4TU-5 | 2026-09-03 18:25:46 | 42.92686 | 20.36670 | 225° | 18km/h | 24967m | 6.8m/s | -50.1°C | 0.0% | 0hPa | 0V | 00:00:00 | 00:00:00 | 00:00:00 | |
| LZ4TU-5 | 2026-09-03 18:25:41 | 42.92719 | 20.36652 | 154° | 42km/h | 24932m | 6.9m/s | -50.1°C | 0.0% | 0hPa | 0V | 00:00:00 | 00:00:00 | 00:00:00 | |
| LZ4TU-5 | 2026-09-03 18:24:15 | 42.93121 | 20.36483 | 165° | 29km/h | 24343m | 7.8m/s | -52.3°C | 0.0% | 0hPa | 0V | 00:00:00 | 00:00:00 | 00:00:00 | |
| LZ4TU-5 | 2026-09-03 18:24:10 | 42.93149 | 20.36467 | 163° | 20km/h | 24312m | 6.2m/s | -52.7°C | 0.0% | 0hPa | 0V | 00:00:00 | 00:00:00 | 00:00:00 | |
| LZ4TU-5 | 2026-09-03 18:22:44 | 42.93649 | 20.36353 | 144° | 18km/h | 23766m | 5.1m/s | -53.4°C | 0.0% | 0hPa | 0V | 00:00:00 | 00:00:00 | 00:00:00 | |
| LZ4TU-5 | 2026-09-03 18:22:39 | 42.93672 | 20.36336 | 147° | 24km/h | 23734m | 7.7m/s | -53.6°C | 0.0% | 0hPa | 0V | 00:00:00 | 00:00:00 | 00:00:00 | |
| LZ4TU-5 | 2026-09-03 18:22:34 | 42.93693 | 20.36310 | 120° | 9km/h | 23706m | 4.6m/s | -53.7°C | 0.0% | 0hPa | 0V | 00:00:00 | 00:00:00 | 00:00:00 | |
| LZ4TU-5 | 2026-09-03 18:21:09 | 42.93927 | 20.36005 | 150° | 9km/h | 23173m | 5.8m/s | -54.8°C | 0.0% | 0hPa | 0V | 00:00:00 | 00:00:00 | 00:00:00 | |
| LZ4TU-5 | 2026-09-03 18:21:05 | 42.93928 | 20.35998 | 68° | 7km/h | 23147m | 5.4m/s | -55.0°C | 0.0% | 0hPa | 0V | 00:00:00 | 00:00:00 | 00:00:00 | |
| LZ4TU-5 | 2026-09-03 18:19:44 | 42.93970 | 20.36138 | 0° | 0km/h | 22614m | 7.6m/s | -53.0°C | 0.0% | 0hPa | 0V | 00:00:00 | 00:00:00 | 00:00:00 | |
| LZ4TU-5 | 2026-09-03 18:19:39 | 42.93971 | 20.36147 | 309° | 20km/h | 22582m | 5.5m/s | -52.8°C | 0.0% | 0hPa | 0V | 00:00:00 | 00:00:00 | 00:00:00 | |
| LZ4TU-5 | 2026-09-03 18:18:15 | 42.94004 | 20.36137 | 28° | 22km/h | 22055m | 5.4m/s | -54.8°C | 0.0% | 0hPa | 0V | 00:00:00 | 00:00:00 | 00:00:00 | |
| LZ4TU-5 | 2026-09-03 18:18:10 | 42.93997 | 20.36137 | 241° | 13km/h | 22025m | 6.6m/s | -54.8°C | 0.0% | 0hPa | 0V | 00:00:00 | 00:00:00 | 00:00:00 | |
| LZ4TU-5 | 2026-09-03 18:16:55 | 42.94068 | 20.36087 | 94° | 20km/h | 21582m | 5.6m/s | -55.2°C | 0.0% | 0hPa | 0V | 00:00:00 | 00:00:00 | 00:00:00 | |
| LZ4TU-5 | 2026-09-03 18:16:51 | 42.94070 | 20.36062 | 104° | 20km/h | 21557m | 5.1m/s | -55.2°C | 0.0% | 0hPa | 0V | 00:00:00 | 00:00:00 | 00:00:00 | |
| LZ4TU-5 | 2026-09-03 18:15:38 | 42.93930 | 20.35885 | 71° | 5km/h | 21119m | 6.1m/s | -55.4°C | 0.0% | 0hPa | 0V | 00:00:00 | 00:00:00 | 00:00:00 | |
| LZ4TU-5 | 2026-09-03 18:15:33 | 42.93921 | 20.35876 | 6° | 7km/h | 21089m | 6.7m/s | -55.6°C | 0.0% | 0hPa | 0V | 00:00:00 | 00:00:00 | 00:00:00 | |
| LZ4TU-5 | 2026-09-03 18:14:19 | 42.94105 | 20.35934 | 219° | 18km/h | 20653m | 6.0m/s | -54.7°C | 0.0% | 0hPa | 0V | 00:00:00 | 00:00:00 | 00:00:00 | |
| LZ4TU-5 | 2026-09-03 18:14:14 | 42.94119 | 20.35938 | 61° | 4km/h | 20623m | 5.2m/s | -54.6°C | 0.0% | 0hPa | 0V | 00:00:00 | 00:00:00 | 00:00:00 | |
| LZ4TU-5 | 2026-09-03 18:12:58 | 42.94195 | 20.36019 | 278° | 9km/h | 20191m | 5.7m/s | -55.2°C | 0.0% | 0hPa | 0V | 00:00:00 | 00:00:00 | 00:00:00 | |
| LZ4TU-5 | 2026-09-03 18:12:53 | 42.94192 | 20.36023 | 238° | 5km/h | 20164m | 6.0m/s | -55.3°C | 0.0% | 0hPa | 0V | 00:00:00 | 00:00:00 | 00:00:00 | |
| LZ4TU-5 | 2026-09-03 18:11:27 | 42.94532 | 20.35496 | 108° | 29km/h | 19685m | 6.8m/s | -56.3°C | 0.0% | 0hPa | 0V | 00:00:00 | 00:00:00 | 00:00:00 | |
| LZ4TU-5 | 2026-09-03 18:11:22 | 42.94551 | 20.35456 | 135° | 26km/h | 19657m | 5.9m/s | -56.2°C | 0.0% | 0hPa | 0V | 00:00:00 | 00:00:00 | 00:00:00 | |
| LZ4TU-5 | 2026-09-03 18:09:45 | 42.94601 | 20.34785 | 358° | 5km/h | 19090m | 6.8m/s | -55.9°C | 0.0% | 0hPa | 0V | 00:00:00 | 00:00:00 | 00:00:00 | |
| LZ4TU-5 | 2026-09-03 18:09:40 | 42.94607 | 20.34781 | 138° | 18km/h | 19062m | 5.7m/s | -56.2°C | 0.0% | 0hPa | 0V | 00:00:00 | 00:00:00 | 00:00:00 | |
| LZ4TU-5 | 2026-09-03 18:08:17 | 42.94748 | 20.33968 | 72° | 57km/h | 18588m | 5.6m/s | -56.9°C | 0.0% | 0hPa | 0V | 00:00:00 | 00:00:00 | 00:00:00 | |
| LZ4TU-5 | 2026-09-03 18:08:12 | 42.94726 | 20.33903 | 43° | 27km/h | 18559m | 6.2m/s | -56.9°C | 0% | 0hPa | 0V | 00:00:00 | 00:00:00 | 00:00:00 | |
| LZ4TU-5 | 2026-09-03 18:06:49 | 42.94158 | 20.33306 | 39° | 24km/h | 18113m | 7.1m/s | -55.2°C | 0.1% | 0hPa | 0V | 00:00:00 | 00:00:00 | 00:00:00 | |
| LZ4TU-5 | 2026-09-03 18:06:44 | 42.94145 | 20.33305 | 316° | 5km/h | 18076m | 11.0m/s | -54.8°C | 0.1% | 0hPa | 0V | 00:00:00 | 00:00:00 | 00:00:00 | |
| LZ4TU-5 | 2026-09-03 18:05:14 | 42.94306 | 20.32559 | 121° | 44km/h | 17470m | 4.2m/s | -56.7°C | 0.3% | 0hPa | 0V | 00:00:00 | 00:00:00 | 00:00:00 | |
| LZ4TU-5 | 2026-09-03 18:03:49 | 42.94942 | 20.31367 | 119° | 64km/h | 17015m | 4.9m/s | -58.4°C | 0.5% | 0hPa | 0V | 00:00:00 | 00:00:00 | 00:00:00 | |
| LZ4TU-5 | 2026-09-03 18:03:45 | 42.94975 | 20.31290 | 125° | 60km/h | 16991m | 4.4m/s | -58.4°C | 0.6% | 0hPa | 0V | 00:00:00 | 00:00:00 | 00:00:00 | |
| LZ4TU-5 | 2026-09-03 18:02:23 | 42.95189 | 20.29907 | 89° | 35km/h | 16547m | 4.3m/s | -57.3°C | 1.1% | 0hPa | 0V | 00:00:00 | 00:00:00 | 00:00:00 | |
| LZ4TU-5 | 2026-09-03 18:02:18 | 42.95188 | 20.29848 | 98° | 37km/h | 16523m | 5.8m/s | -57.2°C | 1.1% | 0hPa | 0V | 00:00:00 | 00:00:00 | 00:00:00 | |
| LZ4TU-5 | 2026-09-03 18:00:54 | 42.95423 | 20.28798 | 113° | 62km/h | 16088m | 5.9m/s | -58.3°C | 1.7% | 0hPa | 0V | 00:00:00 | 00:00:00 | 00:00:00 | |
| LZ4TU-5 | 2026-09-03 18:00:49 | 42.95452 | 20.28697 | 112° | 55km/h | 16061m | 5.6m/s | -58.1°C | 1.8% | 0hPa | 0V | 00:00:00 | 00:00:00 | 00:00:00 | |
| LZ4TU-5 | 2026-09-03 17:59:24 | 42.95734 | 20.27388 | 117° | 55km/h | 15602m | 5.4m/s | -57.0°C | 2.3% | 0hPa | 0V | 00:00:00 | 00:00:00 | 00:00:00 | |
| LZ4TU-5 | 2026-09-03 17:59:19 | 42.95759 | 20.27303 | 104° | 51km/h | 15572m | 6.9m/s | -57.4°C | 2.4% | 0hPa | 0V | 00:00:00 | 00:00:00 | 00:00:00 | |
| LZ4TU-5 | 2026-09-03 17:57:55 | 42.95996 | 20.26050 | 118° | 37km/h | 15114m | 4.1m/s | -57.0°C | 3.3% | 0hPa | 0V | 00:00:00 | 00:00:00 | 00:00:00 | |
| LZ4TU-5 | 2026-09-03 17:57:51 | 42.96013 | 20.26009 | 119° | 37km/h | 15096m | 5.0m/s | -57.1°C | 3.3% | 0hPa | 0V | 00:00:00 | 00:00:00 | 00:00:00 | |
| LZ4TU-5 | 2026-09-03 17:56:25 | 42.96572 | 20.24994 | 119° | 49km/h | 14686m | 5.4m/s | -56.3°C | 4.4% | 0hPa | 0V | 00:00:00 | 00:00:00 | 00:00:00 | |
| LZ4TU-5 | 2026-09-03 17:56:20 | 42.96606 | 20.24917 | 133° | 55km/h | 14665m | 4.0m/s | -56.3°C | 4.5% | 0hPa | 0V | 00:00:00 | 00:00:00 | 00:00:00 | |
| LZ4TU-5 | 2026-09-03 17:54:55 | 42.97371 | 20.23512 | 127° | 77km/h | 14309m | 5.2m/s | -56.2°C | 5.9% | 0hPa | 0V | 00:00:00 | 00:00:00 | 00:00:00 | |
| LZ4TU-5 | 2026-09-03 17:54:50 | 42.97423 | 20.23418 | 122° | 57km/h | 14287m | 5.0m/s | -56.2°C | 6.1% | 0hPa | 0V | 00:00:00 | 00:00:00 | 00:00:00 | |
| LZ4TU-5 | 2026-09-03 17:53:27 | 42.97999 | 20.21770 | 105° | 64km/h | 13882m | 4.1m/s | -55.6°C | 8.0% | 0hPa | 0V | 00:00:00 | 00:00:00 | 00:00:00 | |
| LZ4TU-5 | 2026-09-03 17:53:23 | 42.98019 | 20.21687 | 110° | 60km/h | 13861m | 6.0m/s | -55.5°C | 0% | 0hPa | 0V | 00:00:00 | 00:00:00 | 00:00:00 | |
| LZ4TU-5 | 2026-09-03 17:51:43 | 42.98577 | 20.19933 | 118° | 77km/h | 13311m | 4.9m/s | -54.9°C | 12.6% | 0hPa | 0V | 00:00:00 | 00:00:00 | 00:00:00 | |
| LZ4TU-5 | 2026-09-03 17:51:38 | 42.98619 | 20.19819 | 116° | 73km/h | 13285m | 5.8m/s | -55.1°C | 13.0% | 0hPa | 0V | 00:00:00 | 00:00:00 | 00:00:00 | |
| LZ4TU-5 | 2026-09-03 17:50:14 | 42.99210 | 20.18067 | 133° | 84km/h | 12874m | 3.9m/s | -55.5°C | 20.2% | 0hPa | 0V | 00:00:00 | 00:00:00 | 00:00:00 | |
| LZ4TU-5 | 2026-09-03 17:50:09 | 42.99254 | 20.17966 | 108° | 64km/h | 12849m | 3.6m/s | -55.4°C | 20.4% | 0hPa | 0V | 00:00:00 | 00:00:00 | 00:00:00 | |
| LZ4TU-5 | 2026-09-03 17:48:45 | 43.00282 | 20.16437 | 135° | 97km/h | 12423m | 3.2m/s | -57.5°C | 31.9% | 0hPa | 0V | 00:00:00 | 00:00:00 | 00:00:00 | |
| LZ4TU-5 | 2026-09-03 17:47:14 | 43.01628 | 20.14825 | 152° | 55km/h | 11963m | 7.3m/s | -55.9°C | 33.2% | 0hPa | 0V | 00:00:00 | 00:00:00 | 00:00:00 | |
| LZ4TU-5 | 2026-09-03 17:47:10 | 43.01698 | 20.14771 | 149° | 95km/h | 11927m | 7.7m/s | -56.3°C | 33.6% | 0hPa | 0V | 00:00:00 | 00:00:00 | 00:00:00 | |
| LZ4TU-5 | 2026-09-03 17:45:54 | 43.03314 | 20.13846 | 168° | 113km/h | 11504m | 5.0m/s | -54.4°C | 31.1% | 0hPa | 0V | 00:00:00 | 00:00:00 | 00:00:00 | |
| LZ4TU-5 | 2026-09-03 17:45:49 | 43.03433 | 20.13800 | 164° | 97km/h | 11473m | 7.5m/s | -54.2°C | 31.0% | 0hPa | 0V | 00:00:00 | 00:00:00 | 00:00:00 | |
| LZ4TU-5 | 2026-09-03 17:44:36 | 43.05382 | 20.13086 | 168° | 117km/h | 11064m | 5.5m/s | -51.1°C | 28.1% | 0hPa | 0V | 00:00:00 | 00:00:00 | 00:00:00 | |
| LZ4TU-5 | 2026-09-03 17:44:32 | 43.05490 | 20.13045 | 163° | 100km/h | 11042m | 4.2m/s | -50.9°C | 27.8% | 0hPa | 0V | 00:00:00 | 00:00:00 | 00:00:00 | |
| LZ4TU-5 | 2026-09-03 17:43:18 | 43.07282 | 20.12149 | 155° | 100km/h | 10638m | 5.6m/s | -48.0°C | 26.3% | 0hPa | 0V | 00:00:00 | 00:00:00 | 00:00:00 | |
| LZ4TU-5 | 2026-09-03 17:43:13 | 43.07402 | 20.12088 | 160° | 100km/h | 10602m | 4.3m/s | -47.8°C | 26.2% | 0hPa | 0V | 00:00:00 | 00:00:00 | 00:00:00 | |
| LZ4TU-5 | 2026-09-03 17:41:53 | 43.09255 | 20.11143 | 162° | 89km/h | 10146m | 6.9m/s | -44.3°C | 38.8% | 0hPa | 0V | 00:00:00 | 00:00:00 | 00:00:00 | |
| LZ4TU-5 | 2026-09-03 17:40:38 | 43.10926 | 20.10336 | 170° | 97km/h | 9704m | 4.3m/s | -40.3°C | 32.7% | 0hPa | 0V | 00:00:00 | 00:00:00 | 00:00:00 | |
| LZ4TU-5 | 2026-09-03 17:40:33 | 43.11051 | 20.10303 | 165° | 106km/h | 9672m | 6.0m/s | -40.0°C | 0% | 0hPa | 0V | 00:00:00 | 00:00:00 | 00:00:00 | |
| LZ4TU-5 | 2026-09-03 17:39:15 | 43.12586 | 20.09480 | 168° | 78km/h | 9229m | 4.4m/s | -36.3°C | 31.3% | 0hPa | 0V | 00:00:00 | 00:00:00 | 00:00:00 | |
| LZ4TU-5 | 2026-09-03 17:39:10 | 43.12667 | 20.09431 | 152° | 66km/h | 9202m | 4.4m/s | -36.0°C | 31.6% | 0hPa | 0V | 00:00:00 | 00:00:00 | 00:00:00 |